Outing, MN

2:56 AM CDT on September 02, 2014 (GMT -0500)
Emily | Change Station
CLOSE
Current Station
Personal Weather Station
Location: Emily, MN
Elevation: 1302 ft
Nearby Weather Stations

Elev 1302 ft 46.74 °N, 93.95 °W | Updated 3 seconds ago

Partly Cloudy
Partly Cloudy
52.2 °F
Feels Like 52.2 °F
N
0.0
Wind Variable Wind from East
Gusts 0.0 mph

Today
High -- | Low -- °F
--% Chance of Precip.
Yesterday
High -- | Low -- °F
Precip. -- in
6:36 AM 7:53 PM
Waxing Crescent, 49% visible
Pressure 29.79 in
Visibility 10.0 miles
Clouds Clear
Dew Point 51 °F
Humidity 98%
Rainfall 0.00 in
Snow Depth Not available.
UV 0 out of 12
Pollen 8.00 out of 12
Air Quality Not available.
Flu Activity Not available.
METAR KXVG 020736Z AUTO 00000KT 10SM CLR 11/10 A2979 RMK AO2

More Conditions Fewer Conditions

Pressure 29.79 in
Visibility 10.0 miles
Clouds Clear
Dew Point 51 °F
Humidity 98%
Rainfall 0.00 in
Snow Depth Not available.
UV 0 out of 12
Pollen 8.00 out of 12
Air Quality Not available.
Flu Activity Not available.
METAR KXVG 020736Z AUTO 00000KT 10SM CLR 11/10 A2979 RMK AO2

More Conditions Fewer Conditions

10-Day Weather Forecast

Almanac

Astronomy

Sep. 02, 2014 Rise Set
Actual Time 6:36 AM CDT 7:53 PM CDT
Civil Twilight 6:05 AM CDT 8:24 PM CDT
Nautical Twilight 5:27 AM CDT 9:01 PM CDT
Astronomical Twilight 4:46 AM CDT 9:42 PM CDT
Moon 2:48 PM CDT No Moon Set
Length of Visible Light 14h 19m
Length of Day
13h 16m
Tomorrow will be 3m 13s shorter.
Waxing Crescent, 49% of the Moon is Illuminated
Today
Waxing Crescent
Sep 2
First Quarter
Sep 8
Full
Sep 15
Last Quarter
Sep 24
New

Today's Extremes

State Highs State Lows

Community

WunderPhotos

Upload Photos

1,749,589 photos uploaded!

WunderBlogs® & News

Nearby

Snow Depth

Station Depth Elevation
No new snow has been reported.

Earthquake Activity

City Distance Mag. Time & Date
No recent earthquake activity has been reported nearby.
Minimum magnitude displayed is 2.5.

Coastal Water Temperatures

Place Temperature
No Stations Reporting

Nearby Weather Stations